Time;durP1;ratioP1;P1;durP2;ratioP2;P2;SDS_P1;SDS_P2;PMS_P1;PMS_P2;Temp;Humidity;BMP_temperature;BMP_pressure;BME280_temperature;BME280_humidity;BME280_pressure;Samples;Min_cycle;Max_cycle;Signal;HPM_P1;HPM_P2
2022/04/14 00:00:28;;;;;;;5.95;3.45;;;13.40;87.00;;;;;;4978075;28;20168;-76
2022/04/14 00:02:54;;;;;;;6.78;3.33;;;13.40;87.00;;;;;;4995481;28;20669;-75
2022/04/14 00:05:20;;;;;;;6.75;3.42;;;13.50;87.10;;;;;;4995348;28;20038;-76
2022/04/14 00:07:45;;;;;;;5.03;3.00;;;13.40;87.10;;;;;;4976989;28;20041;-76
2022/04/14 00:10:12;;;;;;;6.45;3.40;;;13.40;87.10;;;;;;4995256;28;20026;-77
2022/04/14 00:12:38;;;;;;;6.65;3.40;;;13.40;87.10;;;;;;4977961;28;20030;-76
2022/04/14 00:15:05;;;;;;;6.55;3.00;;;13.30;87.10;;;;;;4977720;28;20027;-75
2022/04/14 00:17:34;;;;;;;7.63;3.10;;;13.40;87.00;;;;;;4977340;28;20054;-75
2022/04/14 00:20:05;;;;;;;7.25;3.45;;;13.40;87.10;;;;;;4995144;28;20023;-75
2022/04/14 00:22:31;;;;;;;6.57;3.35;;;13.40;87.10;;;;;;4977813;28;20026;-76
2022/04/14 00:24:57;;;;;;;5.60;2.95;;;13.40;87.10;;;;;;4995056;28;20113;-76
2022/04/14 00:27:22;;;;;;;4.78;2.63;;;13.40;87.10;;;;;;4994788;28;20073;-76
2022/04/14 00:29:48;;;;;;;7.47;2.90;;;13.40;87.00;;;;;;4977813;28;20567;-76
2022/04/14 00:32:14;;;;;;;5.32;2.75;;;13.40;87.10;;;;;;4977712;28;20026;-76
2022/04/14 00:34:39;;;;;;;6.25;3.00;;;13.40;87.10;;;;;;4994890;28;20081;-75
2022/04/14 00:37:05;;;;;;;6.10;2.72;;;13.40;87.10;;;;;;4994236;28;20053;-76
2022/04/14 00:39:31;;;;;;;6.32;2.92;;;13.40;87.20;;;;;;4977465;28;20121;-75
2022/04/14 00:41:56;;;;;;;5.63;2.80;;;13.40;87.10;;;;;;4994469;28;20030;-75
2022/04/14 00:44:22;;;;;;;5.47;2.70;;;13.40;87.10;;;;;;4994540;28;20034;-76
2022/04/14 00:46:48;;;;;;;5.22;2.58;;;13.40;87.20;;;;;;4976998;28;20033;-76
2022/04/14 00:49:13;;;;;;;5.38;2.60;;;13.40;87.30;;;;;;4977299;28;20658;-76
2022/04/14 00:51:39;;;;;;;4.97;2.78;;;13.40;87.70;;;;;;4977144;28;20100;-75
2022/04/14 00:54:04;;;;;;;5.65;2.65;;;13.40;87.20;;;;;;4977121;28;20470;-75
2022/04/14 00:56:30;;;;;;;5.57;2.45;;;13.40;87.10;;;;;;4976967;28;20032;-76
2022/04/14 00:58:55;;;;;;;5.15;2.65;;;13.40;87.20;;;;;;4976981;28;20057;-75
2022/04/14 01:01:21;;;;;;;4.65;2.70;;;13.30;87.10;;;;;;4994479;28;20101;-76
2022/04/14 01:03:48;;;;;;;5.45;2.60;;;13.40;87.20;;;;;;4994095;28;20022;-76
2022/04/14 01:06:15;;;;;;;5.38;2.55;;;13.40;87.30;;;;;;4976601;28;20569;-74
2022/04/14 01:09:16;;;;;;;5.55;2.55;;;13.40;87.30;;;;;;4994268;28;20468;-76
2022/04/14 01:11:28;;;;;;;5.03;2.55;;;13.30;87.20;;;;;;4993803;28;20113;-76
2022/04/14 01:13:54;;;;;;;4.63;2.60;;;13.40;87.30;;;;;;4994162;28;20053;-76
2022/04/14 01:16:19;;;;;;;5.30;2.45;;;13.40;87.30;;;;;;4994019;28;20030;-76
2022/04/14 01:18:44;;;;;;;5.97;2.50;;;13.40;87.30;;;;;;4975656;28;20034;-76
2022/04/14 01:21:10;;;;;;;5.35;2.88;;;13.40;87.40;;;;;;4994002;28;20031;-75
2022/04/14 01:23:38;;;;;;;4.82;2.60;;;13.40;87.40;;;;;;4976497;28;20478;-77
2022/04/14 01:26:04;;;;;;;5.25;2.53;;;13.40;87.40;;;;;;4976342;28;20377;-74
2022/04/14 01:28:29;;;;;;;4.68;2.70;;;13.40;87.40;;;;;;4976229;28;20022;-76
2022/04/14 01:30:55;;;;;;;4.15;2.13;;;13.40;87.40;;;;;;4976698;28;20103;-76
2022/04/14 01:33:20;;;;;;;5.97;2.53;;;13.40;87.40;;;;;;4976439;28;20033;-76
2022/04/14 01:35:46;;;;;;;4.65;2.40;;;13.40;87.40;;;;;;4993718;28;20105;-78
2022/04/14 01:38:12;;;;;;;5.72;2.40;;;13.40;87.50;;;;;;4992839;28;20142;-76
2022/04/14 01:40:37;;;;;;;4.82;2.50;;;13.40;87.40;;;;;;4976145;28;20034;-76
2022/04/14 01:43:03;;;;;;;4.18;2.30;;;13.40;87.40;;;;;;4993864;28;20018;-76
2022/04/14 01:45:28;;;;;;;4.80;2.42;;;13.40;87.50;;;;;;4976061;28;20515;-75
2022/04/14 01:47:54;;;;;;;4.57;2.40;;;13.40;87.50;;;;;;4993223;28;20245;-75
2022/04/14 01:50:20;;;;;;;4.28;2.03;;;13.40;87.50;;;;;;4993305;28;20026;-76
2022/04/14 01:52:46;;;;;;;4.13;2.08;;;13.40;87.40;;;;;;4993430;28;20429;-76
2022/04/14 01:55:12;;;;;;;4.25;2.13;;;13.30;87.40;;;;;;4975779;28;20022;-76
2022/04/14 01:57:37;;;;;;;5.63;2.38;;;13.40;87.50;;;;;;4975651;28;20470;-75
2022/04/14 02:00:06;;;;;;;4.63;2.60;;;13.40;87.50;;;;;;4976023;28;20030;-75
2022/04/14 02:02:31;;;;;;;5.50;2.58;;;13.40;87.50;;;;;;4973862;28;20026;-76
2022/04/14 02:04:57;;;;;;;5.22;2.30;;;13.40;87.40;;;;;;4975786;28;20516;-76
2022/04/14 02:07:22;;;;;;;4.03;2.13;;;13.30;87.40;;;;;;4975582;28;20026;-75
2022/04/14 02:09:48;;;;;;;5.30;2.35;;;13.40;87.50;;;;;;4975770;28;20371;-76
2022/04/14 02:12:13;;;;;;;5.97;1.90;;;13.40;87.50;;;;;;4993194;28;20022;-75
2022/04/14 02:14:39;;;;;;;4.05;1.90;;;13.30;87.40;;;;;;4975681;28;20113;-75
2022/04/14 02:17:05;;;;;;;4.20;2.00;;;13.50;87.50;;;;;;4975311;28;20030;-75
2022/04/14 02:19:31;;;;;;;4.25;2.00;;;13.40;87.60;;;;;;4975525;28;20038;-75
2022/04/14 02:21:58;;;;;;;3.70;1.98;;;13.40;87.70;;;;;;4993004;28;20029;-76
2022/04/14 02:24:27;;;;;;;3.42;1.80;;;13.40;87.80;;;;;;4975817;28;20402;-76
2022/04/14 02:26:53;;;;;;;4.63;2.10;;;13.40;87.70;;;;;;4992672;28;20023;-76
2022/04/14 02:29:20;;;;;;;4.93;1.90;;;13.40;88.00;;;;;;4975436;28;20054;-75
2022/04/14 02:31:45;;;;;;;4.03;2.00;;;13.40;87.90;;;;;;4993278;28;20030;-75
2022/04/14 02:34:11;;;;;;;3.95;2.00;;;13.40;88.10;;;;;;4992918;28;20080;-76
2022/04/14 02:36:37;;;;;;;3.63;1.77;;;13.40;88.10;;;;;;4975340;28;20069;-76
2022/04/14 02:39:03;;;;;;;5.13;1.80;;;13.30;88.10;;;;;;4975195;28;20034;-75
2022/04/14 02:41:28;;;;;;;3.22;1.60;;;13.30;88.00;;;;;;4975157;28;20133;-74
2022/04/14 02:43:54;;;;;;;3.50;1.80;;;13.40;88.00;;;;;;4975559;28;20545;-75
2022/04/14 02:46:19;;;;;;;4.18;1.80;;;13.40;87.80;;;;;;4975219;28;20489;-75
2022/04/14 02:48:45;;;;;;;4.35;1.80;;;13.40;87.80;;;;;;4975291;28;20033;-75
2022/04/14 02:51:11;;;;;;;4.50;1.63;;;13.40;87.80;;;;;;4975402;28;20066;-76
2022/04/14 02:53:36;;;;;;;5.13;1.83;;;13.40;87.80;;;;;;4975713;28;20033;-75
2022/04/14 02:56:04;;;;;;;3.20;1.55;;;13.40;88.00;;;;;;4975392;28;20026;-76
2022/04/14 02:58:29;;;;;;;4.40;1.98;;;13.40;87.90;;;;;;4975055;28;20031;-75
2022/04/14 03:00:55;;;;;;;3.38;1.52;;;13.40;88.20;;;;;;4974130;28;20026;-76
2022/04/14 03:03:23;;;;;;;3.83;1.70;;;13.40;88.30;;;;;;4975259;28;20552;-75
2022/04/14 03:05:49;;;;;;;4.47;1.77;;;13.40;88.40;;;;;;4992559;28;20045;-74
2022/04/14 03:08:15;;;;;;;4.43;1.60;;;13.40;88.60;;;;;;4974768;28;20037;-75
2022/04/14 03:10:40;;;;;;;4.05;1.70;;;13.40;88.80;;;;;;4975285;28;20038;-75
2022/04/14 03:13:06;;;;;;;3.45;1.80;;;13.40;89.00;;;;;;4992639;28;20390;-75
2022/04/14 03:15:31;;;;;;;3.80;1.67;;;13.40;89.40;;;;;;4975153;28;20030;-76
2022/04/14 03:17:57;;;;;;;3.65;1.70;;;13.40;89.40;;;;;;4974803;28;20033;-75
2022/04/14 03:20:22;;;;;;;3.15;1.55;;;13.40;89.90;;;;;;4975252;28;20029;-74
2022/04/14 03:22:48;;;;;;;4.70;1.80;;;13.30;89.70;;;;;;4975143;28;20023;-76
2022/04/14 03:25:14;;;;;;;2.28;1.40;;;13.30;89.50;;;;;;4992593;28;20031;-75
2022/04/14 03:27:40;;;;;;;2.83;1.80;;;13.30;89.70;;;;;;4974808;28;20101;-76
2022/04/14 03:30:07;;;;;;;4.10;1.80;;;13.40;90.00;;;;;;4992402;28;20042;-74
2022/04/14 03:32:38;;;;;;;3.17;1.50;;;13.40;89.60;;;;;;4975068;28;20065;-75
2022/04/14 03:35:04;;;;;;;3.25;1.58;;;13.40;89.60;;;;;;4975080;28;20023;-74
2022/04/14 03:37:30;;;;;;;3.33;1.65;;;13.30;89.70;;;;;;4974394;28;20093;-75
2022/04/14 03:39:55;;;;;;;3.00;1.80;;;13.40;89.70;;;;;;4975164;28;20066;-75
2022/04/14 03:42:21;;;;;;;4.45;1.85;;;13.40;90.00;;;;;;4976427;28;20041;-75
2022/04/14 03:44:46;;;;;;;5.38;1.73;;;13.30;90.00;;;;;;4959020;28;20478;-74
2022/04/14 03:47:12;;;;;;;4.38;1.65;;;13.30;90.00;;;;;;4958901;28;20026;-74
2022/04/14 03:49:37;;;;;;;3.03;1.70;;;13.30;89.80;;;;;;4958852;28;20038;-75
2022/04/14 03:52:03;;;;;;;2.53;1.60;;;13.40;90.00;;;;;;4976109;28;20026;-75
2022/04/14 03:54:28;;;;;;;2.97;1.40;;;13.30;89.70;;;;;;4958799;28;20125;-74
2022/04/14 03:56:54;;;;;;;2.78;1.60;;;13.30;89.70;;;;;;4958495;28;20114;-75
2022/04/14 03:59:20;;;;;;;2.70;1.40;;;13.30;89.70;;;;;;4976062;28;20027;-75
2022/04/14 04:01:46;;;;;;;2.83;1.38;;;13.40;89.60;;;;;;4982796;28;20069;-75
2022/04/14 04:04:11;;;;;;;2.88;1.63;;;13.40;89.60;;;;;;4954010;29;20415;-74
2022/04/14 04:06:37;;;;;;;4.57;1.70;;;13.30;89.40;;;;;;4956372;29;20027;-75
2022/04/14 04:09:03;;;;;;;2.92;1.52;;;13.30;89.60;;;;;;4956489;29;20070;-75
2022/04/14 04:11:28;;;;;;;3.38;1.42;;;13.30;89.50;;;;;;4939546;29;20059;-74
2022/04/14 04:13:54;;;;;;;3.20;1.50;;;13.30;89.20;;;;;;4977427;28;20038;-76
2022/04/14 04:16:20;;;;;;;4.53;1.35;;;13.30;89.40;;;;;;4970476;28;20027;-74
2022/04/14 04:18:45;;;;;;;2.88;1.50;;;13.30;89.30;;;;;;4975589;28;20026;-75
2022/04/14 04:21:10;;;;;;;3.33;1.45;;;13.40;89.30;;;;;;4975688;28;20101;-75
2022/04/14 04:23:36;;;;;;;3.35;1.45;;;13.40;89.00;;;;;;4958397;28;20512;-74
2022/04/14 04:26:01;;;;;;;3.40;1.50;;;13.30;88.90;;;;;;4958303;28;20030;-74
2022/04/14 04:28:30;;;;;;;3.72;1.67;;;13.30;88.90;;;;;;4957936;28;20022;-75
2022/04/14 04:30:56;;;;;;;3.25;1.45;;;13.30;88.80;;;;;;4975416;28;20038;-75
2022/04/14 04:33:22;;;;;;;3.15;1.48;;;13.40;88.80;;;;;;4958288;28;20042;-75
2022/04/14 04:35:49;;;;;;;3.42;1.60;;;13.30;88.70;;;;;;4957881;28;20098;-75
2022/04/14 04:38:15;;;;;;;2.47;1.42;;;13.30;88.70;;;;;;4975102;28;20030;-75
2022/04/14 04:40:40;;;;;;;3.85;1.60;;;13.40;88.90;;;;;;4959207;28;20027;-75
2022/04/14 04:43:06;;;;;;;3.42;1.67;;;13.30;88.90;;;;;;4974257;28;20022;-75
2022/04/14 04:45:31;;;;;;;2.88;1.63;;;13.30;89.00;;;;;;4975234;28;20030;-75
2022/04/14 04:47:57;;;;;;;3.50;1.80;;;13.30;88.90;;;;;;4974399;28;20058;-75
2022/04/14 04:50:22;;;;;;;3.20;1.40;;;13.30;88.90;;;;;;4975165;28;20045;-75
2022/04/14 04:52:48;;;;;;;3.88;1.92;;;13.40;89.00;;;;;;4972369;28;20033;-74
2022/04/14 04:55:13;;;;;;;3.92;1.80;;;13.30;89.00;;;;;;4970193;28;20648;-75
2022/04/14 04:57:39;;;;;;;4.72;1.98;;;13.30;88.90;;;;;;4971427;28;20035;-76
2022/04/14 05:00:05;;;;;;;4.15;2.10;;;13.30;89.00;;;;;;4969309;28;20027;-76
2022/04/14 05:02:30;;;;;;;4.25;1.95;;;13.30;89.00;;;;;;4974076;28;20034;-76
2022/04/14 05:04:56;;;;;;;3.45;1.98;;;13.30;89.00;;;;;;4971469;28;20029;-75
2022/04/14 05:07:21;;;;;;;3.50;1.60;;;13.30;89.10;;;;;;4972713;28;20105;-75
2022/04/14 05:09:47;;;;;;;4.60;2.40;;;13.30;89.10;;;;;;4970499;28;20105;-77
2022/04/14 05:12:12;;;;;;;4.40;2.28;;;13.30;89.20;;;;;;4971125;28;20023;-76
2022/04/14 05:14:38;;;;;;;6.32;2.63;;;13.30;89.10;;;;;;4970928;28;20170;-75
2022/04/14 05:17:04;;;;;;;4.90;2.70;;;13.30;89.20;;;;;;4971787;28;20470;-77
2022/04/14 05:19:29;;;;;;;5.63;2.63;;;13.30;89.30;;;;;;4971189;28;20026;-76
2022/04/14 05:21:55;;;;;;;5.20;2.80;;;13.30;89.10;;;;;;4991389;28;20068;-77
2022/04/14 05:24:21;;;;;;;6.93;2.78;;;13.30;89.30;;;;;;4984618;28;20015;-73
2022/04/14 05:26:46;;;;;;;6.13;3.17;;;13.30;89.20;;;;;;4970359;28;20429;-75
2022/04/14 05:29:12;;;;;;;5.78;2.60;;;13.30;89.30;;;;;;4971442;28;20045;-76
2022/04/14 05:31:37;;;;;;;5.95;2.92;;;13.30;89.20;;;;;;4972260;28;20027;-75
2022/04/14 05:34:03;;;;;;;7.25;3.30;;;13.40;89.20;;;;;;4989622;28;20073;-75
2022/04/14 05:36:28;;;;;;;6.05;2.90;;;13.20;89.30;;;;;;4980870;28;20042;-76
2022/04/14 05:38:54;;;;;;;7.18;3.25;;;13.30;89.30;;;;;;4971035;28;20158;-75
2022/04/14 05:41:19;;;;;;;6.65;3.08;;;13.30;89.50;;;;;;4971884;28;20062;-75
2022/04/14 05:43:45;;;;;;;5.97;3.05;;;13.30;89.40;;;;;;4972242;28;20030;-75
2022/04/14 05:46:10;;;;;;;5.65;2.80;;;13.30;89.20;;;;;;4971487;28;20161;-76
2022/04/14 05:48:36;;;;;;;7.30;3.15;;;13.30;89.10;;;;;;4972310;28;20038;-75
2022/04/14 05:51:01;;;;;;;5.95;3.20;;;13.40;89.20;;;;;;4971773;28;20038;-76
2022/04/14 05:53:28;;;;;;;7.18;3.25;;;13.30;89.00;;;;;;4971989;28;20038;-76
2022/04/14 05:55:54;;;;;;;9.10;3.80;;;13.30;89.00;;;;;;4971303;28;20027;-74
2022/04/14 05:58:19;;;;;;;7.18;3.42;;;13.30;89.10;;;;;;4971805;28;20770;-77
2022/04/14 06:00:45;;;;;;;5.85;3.45;;;13.40;89.10;;;;;;4971942;28;20037;-76
2022/04/14 06:03:11;;;;;;;5.95;3.55;;;13.30;89.10;;;;;;4971137;28;20030;-77
2022/04/14 06:05:36;;;;;;;6.45;3.47;;;13.30;89.30;;;;;;4970832;28;20078;-76
2022/04/14 06:08:02;;;;;;;6.95;3.83;;;13.30;89.10;;;;;;4971178;28;20113;-76
2022/04/14 06:10:28;;;;;;;6.68;3.55;;;13.30;89.20;;;;;;4987321;28;20046;-75
2022/04/14 06:12:55;;;;;;;6.70;3.72;;;13.30;89.20;;;;;;4989871;28;20031;-76
2022/04/14 06:15:21;;;;;;;7.13;3.63;;;13.30;89.20;;;;;;4991716;28;20104;-76
2022/04/14 06:17:46;;;;;;;7.88;4.22;;;13.30;89.20;;;;;;4990891;28;20109;-76
2022/04/14 06:20:13;;;;;;;6.88;3.65;;;13.30;89.20;;;;;;4991900;28;20080;-75
2022/04/14 06:22:39;;;;;;;8.32;3.72;;;13.30;89.20;;;;;;4991063;28;20026;-76
2022/04/14 06:25:12;;;;;;;6.95;4.10;;;13.30;89.20;;;;;;4974059;28;20030;-75
2022/04/14 06:27:40;;;;;;;7.70;3.97;;;13.30;89.30;;;;;;4973569;28;20027;-76
2022/04/14 06:30:08;;;;;;;7.18;3.90;;;13.30;89.30;;;;;;4991507;28;20486;-74
2022/04/14 06:32:34;;;;;;;7.47;4.05;;;13.40;89.30;;;;;;4991441;28;20512;-76
2022/04/14 06:35:00;;;;;;;6.95;4.07;;;13.30;89.30;;;;;;4974268;28;20062;-75
2022/04/14 06:37:25;;;;;;;6.90;3.75;;;13.30;89.40;;;;;;4990506;28;20037;-75
2022/04/14 06:39:51;;;;;;;8.45;4.10;;;13.40;89.30;;;;;;4991484;28;20027;-77
2022/04/14 06:42:16;;;;;;;7.78;4.15;;;13.30;89.50;;;;;;4987968;28;20034;-76
2022/04/14 06:44:42;;;;;;;7.00;4.13;;;13.30;89.30;;;;;;4990065;28;20026;-78
2022/04/14 06:47:07;;;;;;;8.73;4.18;;;13.40;89.50;;;;;;4990979;28;20401;-77
2022/04/14 06:49:34;;;;;;;7.38;4.18;;;13.30;90.00;;;;;;4984806;28;20035;-76
2022/04/14 06:52:01;;;;;;;6.80;4.05;;;13.30;89.40;;;;;;4970553;28;20050;-76
2022/04/14 06:54:27;;;;;;;7.72;4.28;;;13.40;89.40;;;;;;4970374;28;20584;-76
2022/04/14 06:56:53;;;;;;;9.07;4.18;;;13.30;89.40;;;;;;4970224;28;20033;-75
2022/04/14 06:59:19;;;;;;;7.22;4.20;;;13.30;89.50;;;;;;4971210;28;20029;-77
2022/04/14 07:01:44;;;;;;;8.07;4.50;;;13.30;89.50;;;;;;4970211;28;20019;-74
2022/04/14 07:04:10;;;;;;;6.75;4.15;;;13.40;89.40;;;;;;4969855;28;20027;-74
2022/04/14 07:06:35;;;;;;;8.23;4.80;;;13.40;89.40;;;;;;4970890;28;20041;-74
2022/04/14 07:09:01;;;;;;;8.82;5.00;;;13.40;89.60;;;;;;4971211;28;20035;-74
2022/04/14 07:11:26;;;;;;;8.43;4.53;;;13.40;89.30;;;;;;4970002;28;20471;-75
2022/04/14 07:13:52;;;;;;;11.65;4.65;;;13.40;89.50;;;;;;4969830;28;20698;-74
2022/04/14 07:16:17;;;;;;;12.32;5.25;;;13.40;89.70;;;;;;4968808;28;20078;-72
2022/04/14 07:18:43;;;;;;;14.13;5.63;;;13.40;89.40;;;;;;4974086;28;20054;-74
2022/04/14 07:21:08;;;;;;;18.13;5.88;;;13.40;89.50;;;;;;4974561;28;20031;-74
2022/04/14 07:23:34;;;;;;;16.25;5.57;;;13.40;89.40;;;;;;4973577;28;20027;-74
2022/04/14 07:25:59;;;;;;;16.38;6.72;;;13.40;89.30;;;;;;4974043;28;20553;-73
2022/04/14 07:28:25;;;;;;;21.73;6.38;;;13.40;89.40;;;;;;4973916;28;20039;-74
2022/04/14 07:30:50;;;;;;;19.38;6.55;;;13.40;89.50;;;;;;4973159;28;20605;-74
2022/04/14 07:33:16;;;;;;;17.63;6.82;;;13.40;89.60;;;;;;4974421;28;20027;-74
2022/04/14 07:35:41;;;;;;;20.45;7.18;;;13.40;89.40;;;;;;4974522;28;20107;-76
2022/04/14 07:38:07;;;;;;;21.75;7.53;;;13.40;89.40;;;;;;4970823;28;20433;-77
2022/04/14 07:40:33;;;;;;;20.15;6.97;;;13.40;89.50;;;;;;4975565;28;20022;-76
2022/04/14 07:42:58;;;;;;;20.08;6.95;;;13.40;89.30;;;;;;4973843;28;20101;-75
2022/04/14 07:45:24;;;;;;;17.70;7.55;;;13.40;89.60;;;;;;4991726;28;20516;-75
2022/04/14 07:47:50;;;;;;;16.25;7.65;;;13.40;89.50;;;;;;4973528;28;20688;-75
2022/04/14 07:50:19;;;;;;;20.85;7.97;;;13.40;89.40;;;;;;4991388;28;20030;-74
2022/04/14 07:52:55;;;;;;;18.33;7.05;;;13.40;89.40;;;;;;4991204;28;20022;-74
2022/04/14 07:55:23;;;;;;;16.58;7.93;;;13.40;89.20;;;;;;4991526;28;20026;-71
2022/04/14 07:57:51;;;;;;;19.23;8.13;;;13.40;89.30;;;;;;4990990;28;20030;-74
2022/04/14 08:00:17;;;;;;;16.83;8.57;;;13.50;89.20;;;;;;4991392;28;20076;-74
2022/04/14 08:02:48;;;;;;;17.55;8.48;;;13.50;89.20;;;;;;4990763;28;20026;-74
2022/04/14 08:05:14;;;;;;;19.65;9.32;;;13.50;89.20;;;;;;4973862;28;20030;-75
2022/04/14 08:07:39;;;;;;;19.52;8.75;;;13.50;89.10;;;;;;4990625;28;20026;-74
2022/04/14 08:10:05;;;;;;;21.42;9.15;;;13.50;89.00;;;;;;4973703;28;20042;-74
2022/04/14 08:12:31;;;;;;;18.13;8.65;;;13.50;88.90;;;;;;4990978;28;20041;-73
2022/04/14 08:14:56;;;;;;;20.00;8.98;;;13.50;88.70;;;;;;4991166;28;20061;-75
2022/04/14 08:17:22;;;;;;;22.52;9.48;;;13.60;88.60;;;;;;4973172;28;20093;-72
2022/04/14 08:19:47;;;;;;;17.58;9.05;;;13.60;88.50;;;;;;4990783;28;20035;-74
2022/04/14 08:22:13;;;;;;;19.48;9.35;;;13.60;88.40;;;;;;4990824;28;20031;-71
2022/04/14 08:24:38;;;;;;;18.38;9.48;;;13.60;88.40;;;;;;4991186;28;20073;-74
2022/04/14 08:27:04;;;;;;;16.45;9.02;;;13.60;88.30;;;;;;4989990;28;20022;-72
2022/04/14 08:29:29;;;;;;;23.67;10.68;;;13.60;88.30;;;;;;4973483;28;20041;-74
2022/04/14 08:31:56;;;;;;;19.30;9.70;;;13.60;88.30;;;;;;4990740;28;20038;-77
2022/04/14 08:34:22;;;;;;;18.75;10.13;;;13.60;88.40;;;;;;4990710;28;20077;-73
2022/04/14 08:36:47;;;;;;;17.77;9.85;;;13.60;88.30;;;;;;4990360;28;20074;-76
2022/04/14 08:39:13;;;;;;;16.30;10.05;;;13.60;88.30;;;;;;4973059;28;20128;-75
2022/04/14 08:41:44;;;;;;;18.38;9.90;;;13.60;88.30;;;;;;4973002;28;20076;-75
2022/04/14 08:44:13;;;;;;;17.87;10.63;;;13.60;88.30;;;;;;4991011;28;20069;-74
2022/04/14 08:46:40;;;;;;;18.38;10.52;;;13.60;88.40;;;;;;4990294;28;20026;-74
2022/04/14 08:49:07;;;;;;;18.17;10.48;;;13.60;88.40;;;;;;4990327;28;20038;-74
2022/04/14 08:51:36;;;;;;;19.20;11.10;;;13.60;88.40;;;;;;4990509;28;20053;-76
2022/04/14 08:54:02;;;;;;;17.63;10.93;;;13.60;88.50;;;;;;4972330;28;20069;-75
2022/04/14 08:56:28;;;;;;;19.83;11.15;;;13.60;88.50;;;;;;4971837;28;20061;-72
2022/04/14 08:58:55;;;;;;;19.02;11.13;;;13.60;88.60;;;;;;4972150;28;20041;-74
2022/04/14 09:01:23;;;;;;;20.42;11.75;;;13.60;88.50;;;;;;4989399;28;20029;-74
2022/04/14 09:03:53;;;;;;;20.77;12.50;;;13.60;88.60;;;;;;4990264;28;21063;-76
2022/04/14 09:06:19;;;;;;;20.17;12.65;;;13.60;88.60;;;;;;4990122;28;20031;-75
2022/04/14 09:08:46;;;;;;;19.33;11.98;;;13.60;88.60;;;;;;4989979;28;20405;-75
2022/04/14 09:11:11;;;;;;;21.65;11.40;;;13.60;88.40;;;;;;4972635;28;20027;-74
2022/04/14 09:13:38;;;;;;;18.75;12.15;;;13.60;88.30;;;;;;4990176;28;20045;-74
2022/04/14 09:16:04;;;;;;;16.60;11.38;;;13.60;88.10;;;;;;4972175;28;20788;-73
2022/04/14 09:18:30;;;;;;;20.15;13.32;;;13.60;88.00;;;;;;4989299;28;20034;-74
2022/04/14 09:21:03;;;;;;;21.67;14.70;;;13.70;88.00;;;;;;4989547;28;20038;-74
2022/04/14 09:23:29;;;;;;;23.58;16.48;;;13.80;89.40;;;;;;4972066;28;20034;-75
2022/04/14 09:26:04;;;;;;;22.92;15.77;;;13.80;90.50;;;;;;4989422;28;20029;-73
2022/04/14 09:28:30;;;;;;;23.50;16.50;;;13.90;90.50;;;;;;4971790;28;20437;-73
2022/04/14 09:31:03;;;;;;;26.67;17.38;;;13.90;90.40;;;;;;4989466;28;20038;-74
2022/04/14 09:33:30;;;;;;;28.83;18.00;;;14.00;90.40;;;;;;4989098;28;20037;-78
2022/04/14 09:36:15;;;;;;;26.08;17.77;;;14.00;90.30;;;;;;4989284;28;20487;-74
2022/04/14 09:38:53;;;;;;;28.60;19.92;;;14.10;90.50;;;;;;4988667;28;20053;-76
2022/04/14 09:41:40;;;;;;;26.98;18.45;;;14.10;90.70;;;;;;4971989;28;20088;-75
2022/04/14 09:44:10;;;;;;;26.23;18.90;;;14.10;90.40;;;;;;4989331;28;20030;-74
2022/04/14 09:46:36;;;;;;;26.08;18.23;;;14.20;90.20;;;;;;4971356;28;20054;-76
2022/04/14 09:49:07;;;;;;;29.67;20.20;;;14.20;90.20;;;;;;4972033;28;20062;-73
2022/04/14 09:51:35;;;;;;;29.20;20.90;;;14.20;90.40;;;;;;4988814;28;20032;-77
2022/04/14 09:54:18;;;;;;;30.58;21.48;;;14.30;90.70;;;;;;4988765;28;20489;-75
2022/04/14 09:56:48;;;;;;;27.00;19.33;;;14.30;90.90;;;;;;4988328;28;20034;-74
2022/04/14 09:59:16;;;;;;;32.30;21.92;;;14.40;90.50;;;;;;4982511;28;20030;-76
2022/04/14 10:01:42;;;;;;;28.95;21.17;;;14.40;90.70;;;;;;4988931;28;20489;-74
2022/04/14 10:04:26;;;;;;;29.70;21.50;;;14.40;90.70;;;;;;4988991;28;20081;-75
2022/04/14 10:07:16;;;;;;;31.50;21.83;;;14.40;90.50;;;;;;4987456;28;20078;-74
2022/04/14 10:09:45;;;;;;;28.27;20.10;;;14.40;91.00;;;;;;4990627;28;20037;-75
2022/04/14 10:12:19;;;;;;;31.63;22.40;;;14.40;90.70;;;;;;5008452;28;20034;-75
2022/04/14 10:15:03;;;;;;;30.48;21.15;;;14.50;91.00;;;;;;4972052;28;20509;-75
2022/04/14 10:17:31;;;;;;;30.95;21.65;;;14.50;90.70;;;;;;4987527;28;20113;-75
2022/04/14 10:19:57;;;;;;;29.27;20.65;;;14.50;90.50;;;;;;4971130;28;20092;-77
2022/04/14 10:22:24;;;;;;;30.45;20.42;;;14.40;90.10;;;;;;4971324;28;20030;-74
2022/04/14 10:24:53;;;;;;;28.00;20.65;;;14.40;90.00;;;;;;4969455;28;20070;-75
2022/04/14 10:27:20;;;;;;;27.42;20.20;;;14.40;89.90;;;;;;4986656;28;20511;-73
2022/04/14 10:29:48;;;;;;;30.55;21.05;;;14.40;89.60;;;;;;4987655;28;20064;-74
2022/04/14 10:32:14;;;;;;;29.60;20.08;;;14.40;89.40;;;;;;4988052;28;20023;-73
2022/04/14 10:34:40;;;;;;;27.42;19.88;;;14.40;89.30;;;;;;4988258;28;20461;-74
2022/04/14 10:37:11;;;;;;;31.20;20.67;;;14.40;89.20;;;;;;4968660;28;20026;-75
2022/04/14 10:39:42;;;;;;;27.17;19.55;;;14.40;89.20;;;;;;4967022;28;20082;-73
2022/04/14 10:42:10;;;;;;;29.77;20.23;;;14.40;89.20;;;;;;4995914;28;20061;-76
2022/04/14 10:44:44;;;;;;;29.02;20.17;;;14.40;89.00;;;;;;4988489;28;20833;-75
2022/04/14 10:47:10;;;;;;;29.45;19.75;;;14.40;88.90;;;;;;4988080;28;20030;-74
2022/04/14 10:49:39;;;;;;;28.35;19.52;;;14.40;88.80;;;;;;4971106;28;20572;-75
2022/04/14 10:52:25;;;;;;;27.58;19.52;;;14.40;88.70;;;;;;4991668;28;20027;-74
2022/04/14 10:54:55;;;;;;;26.90;19.20;;;14.40;88.70;;;;;;4992058;28;20035;-73
2022/04/14 10:57:36;;;;;;;27.83;19.35;;;14.40;88.60;;;;;;4995592;28;20026;-74
2022/04/14 11:00:22;;;;;;;27.33;18.92;;;14.40;88.50;;;;;;4974580;28;20030;-73
2022/04/14 11:03:07;;;;;;;24.58;17.77;;;14.40;88.40;;;;;;4974411;28;20520;-76
2022/04/14 11:05:51;;;;;;;29.70;19.17;;;14.40;88.20;;;;;;4974749;28;20037;-75
2022/04/14 11:08:29;;;;;;;25.75;17.45;;;14.40;88.10;;;;;;4991821;28;20023;-76
2022/04/14 11:11:09;;;;;;;24.35;17.75;;;14.50;88.60;;;;;;4974409;28;20030;-75
2022/04/14 11:13:53;;;;;;;25.77;17.58;;;14.60;88.50;;;;;;4992233;28;20037;-74
2022/04/14 11:16:45;;;;;;;26.17;18.25;;;14.50;88.50;;;;;;4971160;28;20564;-74
2022/04/14 11:19:25;;;;;;;25.15;17.30;;;14.50;88.20;;;;;;4991290;28;20037;-76
2022/04/14 11:22:01;;;;;;;26.40;17.38;;;14.50;88.20;;;;;;4991947;28;20493;-75
2022/04/14 11:24:35;;;;;;;23.83;17.05;;;14.50;88.10;;;;;;4992541;28;20037;-75
2022/04/14 11:27:21;;;;;;;25.30;16.48;;;14.50;88.00;;;;;;4973708;28;20022;-73
2022/04/14 11:29:49;;;;;;;21.27;15.45;;;14.50;88.00;;;;;;4991982;28;20029;-74
2022/04/14 11:32:33;;;;;;;24.27;16.63;;;14.50;87.80;;;;;;4990923;28;20030;-75
2022/04/14 11:35:17;;;;;;;25.20;16.50;;;14.50;87.90;;;;;;4992251;28;20150;-76
2022/04/14 11:37:45;;;;;;;24.13;15.68;;;14.50;87.80;;;;;;4973855;28;20022;-74
2022/04/14 11:40:18;;;;;;;22.98;16.30;;;14.50;87.80;;;;;;4991770;28;20034;-75
2022/04/14 11:42:48;;;;;;;22.40;15.10;;;14.50;87.90;;;;;;4974273;28;20032;-76
2022/04/14 11:45:14;;;;;;;23.80;15.65;;;14.50;87.80;;;;;;4974138;28;20375;-73
2022/04/14 11:47:40;;;;;;;24.05;15.80;;;14.50;87.80;;;;;;4974044;28;20038;-76
2022/04/14 11:50:06;;;;;;;22.33;14.93;;;14.40;87.80;;;;;;4991677;28;20030;-73
2022/04/14 11:52:33;;;;;;;20.80;14.75;;;14.40;87.80;;;;;;4991537;28;20085;-74
2022/04/14 11:55:00;;;;;;;23.05;15.65;;;14.40;87.80;;;;;;4991229;28;20026;-75
2022/04/14 11:57:29;;;;;;;22.33;15.40;;;14.40;87.90;;;;;;4991279;28;20105;-75
2022/04/14 12:00:09;;;;;;;21.13;14.75;;;14.40;87.90;;;;;;4991391;28;20026;-75
2022/04/14 12:02:35;;;;;;;21.52;14.75;;;14.40;87.90;;;;;;4990594;28;20022;-75
2022/04/14 12:05:01;;;;;;;21.83;14.88;;;14.40;87.80;;;;;;4991431;28;20037;-75
2022/04/14 12:07:32;;;;;;;21.20;14.40;;;14.40;87.80;;;;;;4991162;28;20029;-75
2022/04/14 12:09:59;;;;;;;21.13;14.67;;;14.40;87.80;;;;;;4991264;28;20497;-75
2022/04/14 12:12:29;;;;;;;23.17;14.43;;;14.40;88.20;;;;;;4991107;28;20026;-74
2022/04/14 12:14:54;;;;;;;21.20;14.27;;;14.40;87.70;;;;;;4973920;28;20036;-77
2022/04/14 12:17:22;;;;;;;20.67;14.43;;;14.40;87.70;;;;;;4973528;28;20505;-75
2022/04/14 12:19:57;;;;;;;19.35;14.05;;;14.30;87.70;;;;;;4973602;28;20033;-73
2022/04/14 12:22:24;;;;;;;20.17;14.02;;;14.30;87.80;;;;;;4991349;28;20023;-74
2022/04/14 12:24:55;;;;;;;20.58;14.27;;;14.30;88.00;;;;;;4973476;28;20051;-73
2022/04/14 12:27:23;;;;;;;21.20;13.68;;;14.30;88.10;;;;;;4990196;28;20022;-73
2022/04/14 12:29:53;;;;;;;19.60;13.57;;;14.30;88.20;;;;;;4990836;28;20113;-73
2022/04/14 12:32:27;;;;;;;19.63;13.23;;;14.20;88.20;;;;;;4973574;28;20084;-77
2022/04/14 12:34:53;;;;;;;19.08;13.00;;;14.20;88.30;;;;;;4973257;28;20065;-73
2022/04/14 12:37:19;;;;;;;20.52;13.80;;;14.20;88.40;;;;;;4973170;28;20081;-75
2022/04/14 12:39:59;;;;;;;19.58;13.18;;;14.20;88.50;;;;;;4988953;28;20026;-74
2022/04/14 12:42:29;;;;;;;19.20;12.98;;;14.10;88.40;;;;;;4972455;28;20034;-74